Poplar Municipal Airport (PO1)
Poplar, MT
Field Elevation: 2036
Lat: 48°08.06N  Long: 105°09.72W
CTAF/Unicom Freq: 122.8000
   
    
Weather Advisories
2019-04-18   17:05 Z
Altimeter 30.11" Hg
Wind 320° @ 16 KT
Gusts 22 KT
Visibility 10 SM
Temperature 13° C (55° F)
Dewpoint -4° C (25° F)
Relative Humidity 31%
Density Altitude --
Condensation Altitude 10,600 feet
Wind and Runways
Indicated Runway = 27
Headwind = 10 kt
Crosswind = 12 kt
History
 
 
 
More Info
All DigiWx sites map
NOAA Forecast
 
Airport IQ 5010
(M46) Colstrip, MT
(6S5) Ravalli County
 
about DigiWx
 
FAA Disclaimer: The data displayed is for advisory purposes only and is not to be used for flight planning or operations. For official data, please call (not available) to hear the current automated AWOS voice message.
  METAR PO1 181705Z AUTO 32016G22KT 10 SM 13/M04 A3011